createdAt,value
2023-04-24T00:02:21.735Z,6.77
2023-04-24T00:04:50.438Z,5.77
2023-04-24T00:07:18.945Z,5.77
2023-04-24T00:09:47.353Z,6.00
2023-04-24T00:12:16.180Z,6.37
2023-04-24T00:14:44.643Z,5.97
2023-04-24T00:17:14.623Z,5.77
2023-04-24T00:19:43.389Z,5.17
2023-04-24T00:22:12.095Z,4.97
2023-04-24T00:24:40.598Z,4.97
2023-04-24T00:27:09.149Z,4.90
2023-04-24T00:29:37.602Z,5.20
2023-04-24T00:32:06.165Z,5.83
2023-04-24T00:34:36.083Z,4.83
2023-04-24T00:37:04.610Z,5.30
2023-04-24T00:39:33.098Z,7.60
2023-04-24T00:42:02.559Z,6.87
2023-04-24T00:44:31.217Z,6.70
2023-04-24T00:47:00.627Z,6.27
2023-04-24T00:49:29.129Z,5.80
2023-04-24T00:52:00.380Z,5.80
2023-04-24T00:54:28.814Z,8.03
2023-04-24T00:56:58.015Z,5.17
2023-04-24T00:59:26.565Z,5.40
2023-04-24T01:01:55.630Z,5.20
2023-04-24T01:04:24.279Z,5.60
2023-04-24T01:06:53.577Z,5.57
2023-04-24T01:09:24.176Z,5.13
2023-04-24T01:11:52.968Z,5.40
2023-04-24T01:14:21.602Z,5.00
2023-04-24T01:16:50.055Z,5.60
2023-04-24T01:19:19.272Z,6.87
2023-04-24T01:21:49.896Z,5.73
2023-04-24T01:24:20.416Z,5.37
2023-04-24T01:26:48.928Z,6.23
2023-04-24T01:29:17.582Z,6.97
2023-04-24T01:31:46.415Z,7.23
2023-04-24T01:34:15.319Z,5.80
2023-04-24T01:36:44.142Z,13.77
2023-04-24T01:39:12.590Z,6.17
2023-04-24T01:41:42.477Z,7.00
2023-04-24T01:44:11.087Z,6.83
2023-04-24T01:46:40.309Z,5.70
2023-04-24T01:49:08.751Z,9.20
2023-04-24T01:51:37.260Z,5.63
2023-04-24T01:54:06.329Z,5.80
2023-04-24T01:56:36.479Z,5.63
2023-04-24T01:59:06.463Z,5.97
2023-04-24T02:01:37.892Z,5.73
2023-04-24T02:04:06.714Z,5.73
2023-04-24T02:06:35.386Z,5.30
2023-04-24T02:09:05.006Z,6.67
2023-04-24T02:11:33.415Z,5.63
2023-04-24T02:14:01.954Z,4.67
2023-04-24T02:16:33.977Z,5.97
2023-04-24T02:19:02.514Z,5.33
2023-04-24T02:21:31.753Z,4.60
2023-04-24T02:24:00.226Z,4.97
2023-04-24T02:26:28.667Z,5.00
2023-04-24T02:28:57.110Z,5.27
2023-04-24T02:31:25.714Z,4.90
2023-04-24T02:33:55.511Z,5.10
2023-04-24T02:36:24.090Z,5.57
2023-04-24T02:38:52.515Z,5.17
2023-04-24T02:41:21.002Z,5.27
2023-04-24T02:43:49.632Z,5.90
2023-04-24T02:46:18.310Z,5.27
2023-04-24T02:48:47.082Z,5.50
2023-04-24T02:51:16.869Z,5.07
2023-04-24T02:53:45.413Z,4.83
2023-04-24T02:56:14.159Z,5.23
2023-04-24T02:58:43.314Z,4.73
2023-04-24T03:01:11.966Z,5.00
2023-04-24T03:03:40.884Z,5.70
2023-04-24T03:06:10.094Z,7.27
2023-04-24T03:08:39.973Z,5.50
2023-04-24T03:11:08.392Z,5.40
2023-04-24T03:13:36.821Z,5.13
2023-04-24T03:16:05.838Z,4.97
2023-04-24T03:18:34.340Z,5.73
2023-04-24T03:21:04.489Z,6.10
2023-04-24T03:23:32.927Z,6.07
2023-04-24T03:26:03.322Z,6.77
2023-04-24T03:28:31.754Z,7.30
2023-04-24T03:31:00.966Z,5.50
2023-04-24T03:33:29.638Z,7.63
2023-04-24T03:35:58.080Z,6.17
2023-04-24T03:38:26.565Z,5.50
2023-04-24T03:40:55.000Z,5.47
2023-04-24T03:43:24.880Z,6.23
2023-04-24T03:45:53.323Z,6.27
2023-04-24T03:48:21.808Z,5.63
2023-04-24T03:50:50.218Z,7.33
2023-04-24T03:53:18.626Z,7.47
2023-04-24T03:55:47.035Z,5.50
2023-04-24T03:58:15.671Z,6.57
2023-04-24T04:00:47.580Z,5.87
2023-04-24T04:03:16.662Z,6.20
2023-04-24T04:05:45.237Z,5.67
2023-04-24T04:08:13.636Z,4.90
2023-04-24T04:10:42.078Z,5.47
2023-04-24T04:13:10.864Z,15.10
2023-04-24T04:15:39.433Z,12.53
2023-04-24T04:18:09.571Z,8.90
2023-04-24T04:20:38.071Z,42.37
2023-04-24T04:23:06.511Z,7.80
2023-04-24T04:25:35.388Z,6.70
2023-04-24T04:28:03.974Z,5.80
2023-04-24T04:30:33.205Z,5.20
2023-04-24T04:33:02.276Z,5.17
2023-04-24T04:35:32.124Z,8.43
2023-04-24T04:38:00.845Z,6.17
2023-04-24T04:40:29.761Z,6.93
2023-04-24T04:42:58.236Z,7.60
2023-04-24T04:45:27.868Z,6.97
2023-04-24T04:47:56.815Z,6.37
2023-04-24T04:50:25.478Z,5.90
2023-04-24T04:52:55.680Z,7.07
2023-04-24T04:55:24.236Z,8.53
2023-04-24T04:57:53.308Z,18.93
2023-04-24T05:00:22.270Z,13.27
2023-04-24T05:02:50.853Z,7.70
2023-04-24T05:05:19.889Z,8.73
2023-04-24T05:07:48.246Z,8.57
2023-04-24T05:10:18.040Z,10.00
2023-04-24T05:12:46.608Z,10.37
2023-04-24T05:15:15.067Z,8.03
2023-04-24T05:17:43.511Z,9.27
2023-04-24T05:20:12.237Z,7.57
2023-04-24T05:22:40.689Z,6.20
2023-04-24T05:25:09.868Z,8.53
2023-04-24T05:27:39.841Z,13.87
2023-04-24T05:30:10.519Z,7.90
2023-04-24T05:32:39.106Z,10.43
2023-04-24T05:35:08.000Z,9.50
2023-04-24T05:37:36.412Z,8.93
2023-04-24T05:40:06.474Z,8.67
2023-04-24T05:42:34.994Z,8.17
2023-04-24T05:45:05.478Z,7.17
2023-04-24T05:47:33.956Z,7.33
2023-04-24T05:50:02.484Z,7.93
2023-04-24T05:52:30.983Z,12.53
2023-04-24T05:54:59.418Z,16.67
2023-04-24T05:57:27.857Z,8.77
2023-04-24T05:59:56.330Z,7.50
2023-04-24T06:02:26.525Z,6.90
2023-04-24T06:04:55.295Z,10.87
2023-04-24T06:07:23.843Z,10.40
2023-04-24T06:09:52.503Z,9.10
2023-04-24T06:12:21.088Z,9.67
2023-04-24T06:14:49.535Z,12.83
2023-04-24T06:17:18.163Z,9.23
2023-04-24T06:19:48.051Z,10.27
2023-04-24T06:22:16.583Z,14.90
2023-04-24T06:24:44.969Z,13.13
2023-04-24T06:27:14.561Z,15.07
2023-04-24T06:29:44.369Z,9.50
2023-04-24T06:32:13.192Z,13.60
2023-04-24T06:34:41.710Z,9.27
2023-04-24T06:37:11.515Z,8.67
2023-04-24T06:39:39.944Z,7.97
2023-04-24T06:42:09.617Z,9.40
2023-04-24T06:44:42.111Z,8.73
2023-04-24T06:47:10.932Z,8.60
2023-04-24T06:49:39.790Z,8.00
2023-04-24T06:52:08.519Z,8.40
2023-04-24T06:54:38.547Z,10.37
2023-04-24T06:57:07.003Z,9.87
2023-04-24T06:59:35.657Z,11.83
2023-04-24T07:04:33.207Z,11.80
2023-04-24T07:07:01.956Z,11.73
2023-04-24T07:09:30.501Z,8.90
2023-04-24T07:12:00.569Z,9.93
2023-04-24T07:14:28.960Z,10.53
2023-04-24T07:16:58.124Z,11.43
2023-04-24T07:19:26.625Z,23.33
2023-04-24T07:21:56.128Z,32.50
2023-04-24T07:24:26.701Z,19.17
2023-04-24T07:26:56.341Z,13.20
2023-04-24T07:29:26.162Z,9.70
2023-04-24T07:31:55.123Z,9.80
2023-04-24T07:34:23.595Z,9.47
2023-04-24T07:36:52.141Z,14.50
2023-04-24T07:39:20.938Z,27.13
2023-04-24T07:41:49.499Z,10.83
2023-04-24T07:44:18.025Z,10.13
2023-04-24T07:46:48.008Z,8.87
2023-04-24T07:49:18.387Z,10.07
2023-04-24T07:51:48.313Z,11.03
2023-04-24T07:54:16.901Z,9.23
2023-04-24T07:56:45.793Z,13.07
2023-04-24T07:59:14.250Z,10.97
2023-04-24T08:01:42.803Z,10.47
2023-04-24T08:04:12.736Z,33.70
2023-04-24T08:06:41.590Z,28.17
2023-04-24T08:09:10.091Z,12.73
2023-04-24T08:11:38.573Z,10.07
2023-04-24T08:14:07.054Z,11.07
2023-04-24T08:16:37.136Z,9.63
2023-04-24T08:19:05.760Z,9.90
2023-04-24T08:21:35.605Z,11.03
2023-04-24T08:24:06.154Z,10.03
2023-04-24T08:26:34.677Z,11.93
2023-04-24T08:29:03.163Z,13.17
2023-04-24T08:31:31.688Z,34.30
2023-04-24T08:34:00.943Z,20.10
2023-04-24T08:36:39.987Z,13.40
2023-04-24T08:39:16.423Z,11.03
2023-04-24T08:41:46.486Z,12.37
2023-04-24T08:44:17.207Z,10.97
2023-04-24T08:46:46.649Z,12.83
2023-04-24T08:49:17.290Z,13.33
2023-04-24T08:51:46.257Z,12.90
2023-04-24T08:54:16.341Z,11.97
2023-04-24T08:56:46.816Z,12.83
2023-04-24T08:59:15.902Z,10.13
2023-04-24T09:01:44.924Z,10.63
2023-04-24T09:04:15.631Z,11.27
2023-04-24T09:06:44.712Z,19.47
2023-04-24T09:09:13.673Z,13.53
2023-04-24T09:11:43.550Z,10.33
2023-04-24T09:14:12.152Z,9.43
2023-04-24T09:16:40.638Z,11.63
2023-04-24T09:19:09.116Z,12.40
2023-04-24T09:21:37.969Z,20.83
2023-04-24T09:24:08.492Z,12.03
2023-04-24T09:26:38.157Z,11.57
2023-04-24T09:29:07.994Z,9.60
2023-04-24T09:31:36.476Z,9.93
2023-04-24T09:34:08.128Z,11.33
2023-04-24T09:36:39.220Z,8.60
2023-04-24T09:39:11.792Z,8.83
2023-04-24T09:41:47.035Z,8.60
2023-04-24T09:44:17.898Z,8.20
2023-04-24T09:46:49.835Z,9.10
2023-04-24T09:49:22.491Z,8.10
2023-04-24T09:51:51.040Z,8.50
2023-04-24T09:54:21.043Z,7.40
2023-04-24T09:56:50.959Z,8.43
2023-04-24T09:59:21.606Z,7.00
2023-04-24T10:01:53.202Z,12.50
2023-04-24T10:04:23.051Z,8.03
2023-04-24T10:06:52.231Z,7.80
2023-04-24T10:09:25.001Z,16.40
2023-04-24T10:11:54.722Z,9.43
2023-04-24T10:14:26.207Z,9.57
2023-04-24T10:16:57.568Z,8.77
2023-04-24T10:19:28.006Z,5.70
2023-04-24T10:21:57.074Z,5.33
2023-04-24T10:24:25.989Z,5.60
2023-04-24T10:26:55.020Z,4.90
2023-04-24T10:29:25.377Z,4.63
2023-04-24T10:31:53.962Z,5.90
2023-04-24T10:34:23.198Z,15.07
2023-04-24T10:36:56.507Z,5.77
2023-04-24T10:39:27.629Z,16.53
2023-04-24T10:41:58.548Z,23.20
2023-04-24T10:44:38.583Z,13.50
2023-04-24T10:47:07.127Z,6.77
2023-04-24T10:49:35.699Z,5.73
2023-04-24T10:52:06.518Z,4.37
2023-04-24T10:54:38.431Z,4.87
2023-04-24T10:57:29.879Z,4.37
2023-04-24T11:00:18.771Z,12.70
2023-04-24T11:02:51.797Z,5.87
2023-04-24T11:05:21.396Z,4.57
2023-04-24T11:08:14.858Z,3.10
2023-04-24T11:10:45.715Z,9.03
2023-04-24T11:13:18.055Z,5.77
2023-04-24T11:16:17.579Z,3.57
2023-04-24T11:18:51.589Z,4.00
2023-04-24T11:21:20.520Z,3.40
2023-04-24T11:23:49.120Z,3.33
2023-04-24T11:26:20.994Z,3.70
2023-04-24T11:28:50.289Z,3.70
2023-04-24T11:31:39.987Z,5.60
2023-04-24T11:34:10.366Z,4.80
2023-04-24T11:36:39.119Z,3.90
2023-04-24T11:39:07.861Z,4.30
2023-04-24T11:41:36.768Z,4.23
2023-04-24T11:44:05.849Z,3.73
2023-04-24T11:46:34.768Z,3.97
2023-04-24T11:49:04.605Z,3.30
2023-04-24T11:51:43.874Z,2.60
2023-04-24T11:54:16.833Z,3.43
2023-04-24T11:56:47.381Z,2.03
2023-04-24T11:59:16.106Z,1.80
2023-04-24T12:01:48.765Z,2.27
2023-04-24T12:04:19.947Z,2.10
2023-04-24T12:07:02.061Z,1.30
2023-04-24T12:09:30.741Z,1.30
2023-04-24T12:11:59.988Z,2.30
2023-04-24T12:14:28.417Z,1.53
2023-04-24T12:16:56.921Z,1.50
2023-04-24T12:19:26.764Z,1.53
2023-04-24T12:22:02.481Z,1.87
2023-04-24T12:24:31.773Z,2.27
2023-04-24T12:27:02.399Z,1.70
2023-04-24T12:29:31.109Z,2.50
2023-04-24T12:31:59.573Z,1.83
2023-04-24T12:34:29.368Z,3.57
2023-04-24T12:36:58.001Z,2.77
2023-04-24T12:39:27.937Z,3.23
2023-04-24T12:42:02.547Z,1.67
2023-04-24T12:44:32.792Z,2.20
2023-04-24T12:47:01.324Z,2.13
2023-04-24T12:49:33.367Z,2.33
2023-04-24T12:52:01.828Z,1.57
2023-04-24T12:54:34.918Z,1.50
2023-04-24T12:57:03.616Z,1.80
2023-04-24T12:59:32.148Z,1.87
2023-04-24T13:02:00.722Z,1.50
2023-04-24T13:04:29.349Z,1.50
2023-04-24T13:06:59.296Z,1.33
2023-04-24T13:09:27.808Z,3.57
2023-04-24T13:11:57.493Z,2.50
2023-04-24T13:14:25.983Z,1.83
2023-04-24T13:16:54.638Z,3.03
2023-04-24T13:19:23.400Z,3.77
2023-04-24T13:21:51.884Z,3.00
2023-04-24T13:24:22.222Z,3.53
2023-04-24T13:26:50.681Z,3.70
2023-04-24T13:29:19.218Z,2.30
2023-04-24T13:31:49.693Z,1.90
2023-04-24T13:34:18.350Z,1.90
2023-04-24T13:36:47.181Z,3.23
2023-04-24T13:39:15.828Z,2.47
2023-04-24T13:41:46.198Z,2.70
2023-04-24T13:44:14.737Z,3.07
2023-04-24T13:46:44.598Z,3.63
2023-04-24T13:49:13.117Z,3.77
2023-04-24T13:51:42.411Z,2.97
2023-04-24T13:54:11.108Z,3.37
2023-04-24T13:56:39.637Z,2.70
2023-04-24T13:59:09.686Z,2.43
2023-04-24T14:01:38.268Z,2.67
2023-04-24T14:04:06.925Z,3.10
2023-04-24T14:06:35.846Z,2.80
2023-04-24T14:09:04.976Z,5.63
2023-04-24T14:11:33.493Z,12.73
2023-04-24T14:14:01.999Z,10.93
2023-04-24T14:16:32.671Z,4.60
2023-04-24T14:19:01.651Z,3.80
2023-04-24T14:21:30.148Z,22.70
2023-04-24T14:23:58.611Z,11.93
2023-04-24T14:26:27.092Z,4.43
2023-04-24T14:29:04.069Z,2.47
2023-04-24T14:31:42.456Z,5.53
2023-04-24T14:34:12.443Z,2.77
2023-04-24T14:36:41.522Z,4.00
2023-04-24T14:39:11.155Z,16.60
2023-04-24T14:41:42.459Z,8.97
2023-04-24T14:44:12.002Z,6.70
2023-04-24T14:46:42.059Z,4.93
2023-04-24T14:49:13.544Z,5.23
2023-04-24T14:51:43.664Z,2.80
2023-04-24T14:54:17.953Z,2.77
2023-04-24T14:56:52.484Z,2.60
2023-04-24T14:59:21.270Z,2.50
2023-04-24T15:02:04.933Z,2.57
2023-04-24T15:04:35.291Z,2.13
2023-04-24T15:07:03.983Z,2.83
2023-04-24T15:09:33.560Z,2.80
2023-04-24T15:12:02.823Z,2.37
2023-04-24T15:14:31.779Z,2.77
2023-04-24T15:17:01.676Z,2.33
2023-04-24T15:19:30.540Z,2.40
2023-04-24T15:21:59.103Z,9.87
2023-04-24T15:24:27.686Z,15.77
2023-04-24T15:26:58.274Z,12.10
2023-04-24T15:29:28.344Z,8.23
2023-04-24T15:31:56.827Z,7.00
2023-04-24T15:34:26.785Z,11.67
2023-04-24T15:36:55.294Z,6.20
2023-04-24T15:39:26.407Z,6.33
2023-04-24T15:41:58.351Z,5.97
2023-04-24T15:44:28.111Z,4.47
2023-04-24T15:46:57.311Z,3.83
2023-04-24T15:49:27.632Z,2.83
2023-04-24T15:51:56.110Z,2.60
2023-04-24T15:54:24.786Z,15.67
2023-04-24T15:56:53.392Z,5.30
2023-04-24T15:59:23.048Z,16.90
2023-04-24T16:01:51.751Z,21.77
2023-04-24T16:04:20.616Z,21.83
2023-04-24T16:06:50.654Z,16.87
2023-04-24T16:09:21.227Z,12.03
2023-04-24T16:11:50.107Z,17.40
2023-04-24T16:14:18.647Z,66.93
2023-04-24T16:16:47.104Z,26.90
2023-04-24T16:19:16.099Z,21.43
2023-04-24T16:21:44.624Z,26.60
2023-04-24T16:24:14.481Z,17.70
2023-04-24T16:26:43.420Z,9.60
2023-04-24T16:29:11.923Z,18.50
2023-04-24T16:31:40.535Z,11.03
2023-04-24T16:34:09.132Z,7.77
2023-04-24T16:36:37.624Z,7.03
2023-04-24T16:39:07.065Z,6.83
2023-04-24T16:41:36.945Z,15.17
2023-04-24T16:44:05.914Z,6.87
2023-04-24T16:46:34.424Z,3.40
2023-04-24T16:49:03.110Z,4.17
2023-04-24T16:51:31.847Z,6.87
2023-04-24T16:54:00.428Z,12.37
2023-04-24T16:56:28.886Z,10.07
2023-04-24T16:58:59.510Z,10.17
2023-04-24T17:01:28.092Z,6.80
2023-04-24T17:03:56.975Z,4.37
2023-04-24T17:06:25.514Z,3.57
2023-04-24T17:08:53.981Z,3.43
2023-04-24T17:11:23.119Z,4.40
2023-04-24T17:13:53.544Z,2.60
2023-04-24T17:16:32.784Z,2.27
2023-04-24T17:19:04.622Z,2.50
2023-04-24T17:21:33.230Z,3.07
2023-04-24T17:24:01.866Z,3.40
2023-04-24T17:26:32.313Z,16.97
2023-04-24T17:29:00.919Z,7.20
2023-04-24T17:31:30.891Z,5.20
2023-04-24T17:33:59.989Z,9.40
2023-04-24T17:36:28.568Z,9.30
2023-04-24T17:38:57.034Z,9.07
2023-04-24T17:41:25.611Z,12.27
2023-04-24T17:43:54.290Z,8.63
2023-04-24T17:46:22.891Z,6.47
2023-04-24T17:48:53.254Z,6.97
2023-04-24T17:51:21.850Z,4.70
2023-04-24T17:53:50.565Z,6.33
2023-04-24T17:56:19.208Z,6.83
2023-04-24T17:58:48.075Z,6.87
2023-04-24T18:01:16.792Z,7.27
2023-04-24T18:03:45.404Z,4.93
2023-04-24T18:06:17.308Z,6.47
2023-04-24T18:08:45.924Z,16.47
2023-04-24T18:11:14.629Z,10.63
2023-04-24T18:13:43.117Z,7.23
2023-04-24T18:16:11.667Z,14.17
2023-04-24T18:18:40.156Z,3.93
2023-04-24T18:21:08.748Z,3.03
2023-04-24T18:23:38.590Z,3.27
2023-04-24T18:26:07.030Z,3.37
2023-04-24T18:28:45.507Z,3.37
2023-04-24T18:31:15.515Z,3.43
2023-04-24T18:33:44.655Z,3.73
2023-04-24T18:36:20.890Z,3.90
2023-04-24T18:38:51.180Z,4.93
2023-04-24T18:41:21.153Z,3.43
2023-04-24T18:43:52.241Z,3.20
2023-04-24T18:46:21.650Z,3.00
2023-04-24T18:48:50.923Z,3.43
2023-04-24T18:51:21.149Z,5.67
2023-04-24T18:53:53.450Z,2.77
2023-04-24T18:56:22.853Z,2.57
2023-04-24T18:58:52.189Z,3.97
2023-04-24T19:01:20.796Z,6.27
2023-04-24T19:03:49.420Z,4.30
2023-04-24T19:06:18.069Z,3.43
2023-04-24T19:08:47.542Z,5.03
2023-04-24T19:11:17.600Z,4.50
2023-04-24T19:13:46.056Z,3.70
2023-04-24T19:16:14.584Z,13.73
2023-04-24T19:18:43.261Z,13.70
2023-04-24T19:21:11.873Z,4.30
2023-04-24T19:23:41.006Z,4.37
2023-04-24T19:26:09.454Z,4.60
2023-04-24T19:28:39.427Z,5.73
2023-04-24T19:31:07.920Z,5.93
2023-04-24T19:33:36.403Z,5.10
2023-04-24T19:36:05.696Z,6.80
2023-04-24T19:38:34.352Z,7.77
2023-04-24T19:41:03.418Z,6.70
2023-04-24T19:43:31.938Z,6.80
2023-04-24T19:46:02.141Z,7.17
2023-04-24T19:48:32.581Z,5.90
2023-04-24T19:51:01.455Z,3.77
2023-04-24T19:53:30.360Z,2.70
2023-04-24T19:55:59.186Z,3.60
2023-04-24T19:58:30.463Z,3.40
2023-04-24T20:00:59.194Z,3.73
2023-04-24T20:03:33.623Z,4.77
2023-04-24T20:06:03.007Z,5.67
2023-04-24T20:08:31.614Z,4.43
2023-04-24T20:11:00.918Z,3.33
2023-04-24T20:13:31.975Z,4.47
2023-04-24T20:16:00.699Z,4.83
2023-04-24T20:18:31.695Z,3.50
2023-04-24T20:21:01.293Z,7.50
2023-04-24T20:23:29.799Z,6.70
2023-04-24T20:25:59.018Z,4.97
2023-04-24T20:28:29.005Z,2.70
2023-04-24T20:30:57.838Z,2.83
2023-04-24T20:33:28.112Z,2.87
2023-04-24T20:35:58.070Z,1.90
2023-04-24T20:38:26.676Z,3.20
2023-04-24T20:40:57.991Z,1.40
2023-04-24T20:43:29.129Z,1.83
2023-04-24T20:45:58.818Z,1.10
2023-04-24T20:48:27.736Z,0.50
2023-04-24T20:50:57.695Z,0.70
2023-04-24T20:53:26.236Z,0.53
2023-04-24T20:55:54.821Z,0.60
2023-04-24T20:58:23.940Z,0.73
2023-04-24T21:00:52.801Z,0.90
2023-04-24T21:03:21.451Z,1.90
2023-04-24T21:05:50.152Z,1.50
2023-04-24T21:08:19.986Z,1.30
2023-04-24T21:10:48.406Z,2.33
2023-04-24T21:13:16.861Z,1.50
2023-04-24T21:15:45.348Z,1.53
2023-04-24T21:18:13.913Z,1.40
2023-04-24T21:20:42.360Z,1.93
2023-04-24T21:23:10.849Z,1.33
2023-04-24T21:25:40.947Z,1.90
2023-04-24T21:28:09.381Z,3.87
2023-04-24T21:30:39.011Z,2.20
2023-04-24T21:33:07.595Z,2.27
2023-04-24T21:35:36.459Z,2.23
2023-04-24T21:38:04.909Z,1.87
2023-04-24T21:40:33.687Z,1.90
2023-04-24T21:43:03.682Z,1.90
2023-04-24T21:45:32.475Z,2.10
2023-04-24T21:48:01.924Z,2.50
2023-04-24T21:50:30.574Z,2.30
2023-04-24T21:52:58.990Z,2.27
2023-04-24T21:55:28.023Z,2.30
2023-04-24T21:57:56.961Z,6.00
2023-04-24T22:00:27.203Z,4.57
2023-04-24T22:02:55.753Z,3.00
2023-04-24T22:05:24.249Z,2.30
2023-04-24T22:07:54.248Z,1.70
2023-04-24T22:10:22.865Z,1.73
2023-04-24T22:12:51.305Z,2.00
2023-04-24T22:15:19.951Z,1.90
2023-04-24T22:17:52.680Z,1.80
2023-04-24T22:20:21.561Z,2.43
2023-04-24T22:22:50.229Z,1.77
2023-04-24T22:25:19.332Z,1.97
2023-04-24T22:27:47.743Z,1.60
2023-04-24T22:30:16.984Z,1.70
2023-04-24T22:32:45.488Z,1.27
2023-04-24T22:35:15.386Z,1.40
2023-04-24T22:37:43.817Z,1.53
2023-04-24T22:40:12.885Z,1.30
2023-04-24T22:42:41.486Z,2.30
2023-04-24T22:45:13.360Z,1.60
2023-04-24T22:47:41.921Z,2.87
2023-04-24T22:50:11.713Z,1.90
2023-04-24T22:52:41.805Z,2.03
2023-04-24T22:55:11.238Z,1.80
2023-04-24T22:57:39.830Z,2.17
2023-04-24T23:00:11.355Z,1.73
2023-04-24T23:02:41.063Z,2.23
2023-04-24T23:05:10.858Z,1.80
2023-04-24T23:07:39.293Z,2.03
2023-04-24T23:10:10.065Z,1.80
2023-04-24T23:12:38.996Z,2.20
2023-04-24T23:15:08.696Z,2.03
2023-04-24T23:17:37.228Z,2.73
2023-04-24T23:20:06.357Z,3.30
2023-04-24T23:22:34.868Z,3.00
2023-04-24T23:25:03.284Z,1.80
2023-04-24T23:27:33.575Z,3.53
2023-04-24T23:30:02.082Z,2.00
2023-04-24T23:32:30.752Z,6.80
2023-04-24T23:34:59.213Z,4.53
2023-04-24T23:37:28.088Z,4.00
2023-04-24T23:39:56.540Z,2.03
2023-04-24T23:42:25.074Z,3.60
2023-04-24T23:44:54.884Z,3.60
2023-04-24T23:47:23.500Z,3.63
2023-04-24T23:49:51.950Z,2.40
2023-04-24T23:52:20.854Z,2.63
2023-04-24T23:54:49.433Z,2.60
2023-04-24T23:57:17.948Z,2.10
2023-04-24T23:59:46.578Z,3.43
